Map

Track Data

SID SEASON NUMBER BASIN SUBBASIN NAME ISO_TIME NATURE LAT LON WMO_WIND WMO_PRES WMO_AGENCY TRACK_TYPE DIST2LAND LANDFALL IFLAG USA_AGENCY USA_ATCF_ID USA_LAT USA_LON USA_RECORD USA_STATUS USA_WIND USA_PRES USA_SSHS USA_R34_NE USA_R34_SE USA_R34_SW USA_R34_NW USA_R50_NE USA_R50_SE USA_R50_SW USA_R50_NW USA_R64_NE USA_R64_SE USA_R64_SW USA_R64_NW USA_POCI USA_ROCI USA_RMW USA_EYE TOKYO_LAT TOKYO_LON TOKYO_GRADE TOKYO_WIND TOKYO_PRES TOKYO_R50_DIR TOKYO_R50_LONG TOKYO_R50_SHORT TOKYO_R30_DIR TOKYO_R30_LONG TOKYO_R30_SHORT TOKYO_LAND CMA_LAT CMA_LON CMA_CAT CMA_WIND CMA_PRES HKO_LAT HKO_LON HKO_CAT HKO_WIND HKO_PRES NEWDELHI_LAT NEWDELHI_LON NEWDELHI_GRADE NEWDELHI_WIND NEWDELHI_PRES NEWDELHI_CI NEWDELHI_DP NEWDELHI_POCI REUNION_LAT REUNION_LON REUNION_TYPE REUNION_WIND REUNION_PRES REUNION_TNUM REUNION_CI REUNION_RMW REUNION_R34_NE REUNION_R34_SE REUNION_R34_SW REUNION_R34_NW REUNION_R50_NE REUNION_R50_SE REUNION_R50_SW REUNION_R50_NW REUNION_R64_NE REUNION_R64_SE REUNION_R64_SW REUNION_R64_NW BOM_LAT BOM_LON BOM_TYPE BOM_WIND BOM_PRES BOM_TNUM BOM_CI BOM_RMW BOM_R34_NE BOM_R34_SE BOM_R34_SW BOM_R34_NW BOM_R50_NE BOM_R50_SE BOM_R50_SW BOM_R50_NW BOM_R64_NE BOM_R64_SE BOM_R64_SW BOM_R64_NW BOM_ROCI BOM_POCI BOM_EYE BOM_POS_METHOD BOM_PRES_METHOD NADI_LAT NADI_LON NADI_CAT NADI_WIND NADI_PRES WELLINGTON_LAT WELLINGTON_LON WELLINGTON_WIND WELLINGTON_PRES DS824_LAT DS824_LON DS824_STAGE DS824_WIND DS824_PRES TD9636_LAT TD9636_LON TD9636_STAGE TD9636_WIND TD9636_PRES TD9635_LAT TD9635_LON TD9635_WIND TD9635_PRES TD9635_ROCI NEUMANN_LAT NEUMANN_LON NEUMANN_CLASS NEUMANN_WIND NEUMANN_PRES MLC_LAT MLC_LON MLC_CLASS MLC_WIND MLC_PRES USA_GUST BOM_GUST BOM_GUST_PER REUNION_GUST REUNION_GUST_PER USA_SEAHGT USA_SEARAD_NE USA_SEARAD_SE USA_SEARAD_SW USA_SEARAD_NW STORM_SPEED STORM_DIR
1932212N21126 1932 39 WP MM NOT_NAMED 1932-07-30 10:00:00 NR 21.2000 125.500 main 458 453 __________O___ -1 21.2000 125.500 7 6 321
1932212N21126 1932 39 WP MM NOT_NAMED 1932-07-30 12:00:00 NR 21.3508 125.373 main 453 425 __________P___ -1 21.3508 125.373 7 6 322
1932212N21126 1932 39 WP MM NOT_NAMED 1932-07-30 15:00:00 NR 21.5703 125.186 main 425 397 __________P___ -1 21.5703 125.186 7 5 321
1932212N21126 1932 39 WP MM NOT_NAMED 1932-07-30 18:00:00 NR 21.7730 125.009 main 397 374 __________P___ -1 21.7730 125.009 7 5 320
1932212N21126 1932 39 WP MM NOT_NAMED 1932-07-30 21:00:00 NR 21.9490 124.849 main 374 370 __________P___ -1 21.9490 124.849 7 4 319
1932212N21126 1932 39 WP MM NOT_NAMED 1932-07-30 22:00:00 NR 22.0000 124.800 main 370 356 __________O___ -1 22.0000 124.800 3 4 318
1932212N21126 1932 39 WP MM NOT_NAMED 1932-07-31 00:00:00 NR 22.0899 124.711 main 356 343 __________P___ -1 22.0899 124.711 3 3 317
1932212N21126 1932 39 WP MM NOT_NAMED 1932-07-31 03:00:00 NR 22.2057 124.596 main 343 330 __________P___ -1 22.2057 124.596 3 3 320
1932212N21126 1932 39 WP MM NOT_NAMED 1932-07-31 06:00:00 NR 22.3180 124.501 main 330 317 __________P___ -1 22.3180 124.501 3 3 327
1932212N21126 1932 39 WP MM NOT_NAMED 1932-07-31 09:00:00 NR 22.4486 124.423 main 317 314 __________P___ -1 22.4486 124.423 3 3 332
1932212N21126 1932 39 WP MM NOT_NAMED 1932-07-31 10:00:00 NR 22.5000 124.400 main 314 302 __________O___ -1 22.5000 124.400 4 4 341
1932212N21126 1932 39 WP MM NOT_NAMED 1932-07-31 12:00:00 NR 22.6429 124.347 main 302 297 __________P___ -1 22.6429 124.347 4 5 343
1932212N21126 1932 39 WP MM NOT_NAMED 1932-07-31 15:00:00 NR 22.8828 124.281 main 297 281 __________P___ -1 22.8828 124.281 4 5 348
1932212N21126 1932 39 WP MM NOT_NAMED 1932-07-31 18:00:00 NR 23.1257 124.232 main 281 269 __________P___ -1 23.1257 124.232 4 5 351
1932212N21126 1932 39 WP MM NOT_NAMED 1932-07-31 21:00:00 NR 23.3402 124.204 main 269 263 __________P___ -1 23.3402 124.204 4 4 352
1932212N21126 1932 39 WP MM NOT_NAMED 1932-07-31 22:00:00 NR 23.4000 124.200 main 263 258 __________O___ -1 23.4000 124.200 4 3 354
1932212N21126 1932 39 WP MM NOT_NAMED 1932-08-01 00:00:00 NR 23.4764 124.197 main 258 254 __________P___ -1 23.4764 124.197 4 2 4
1932212N21126 1932 39 WP MM NOT_NAMED 1932-08-01 03:00:00 NR 23.5529 124.211 main 254 254 __________P___ -1 23.5529 124.211 4 1 15
1932212N21126 1932 39 WP MM NOT_NAMED 1932-08-01 06:00:00 NR 23.6089 124.242 main 254 254 __________P___ -1 23.6089 124.242 4 1 29
1932212N21126 1932 39 WP MM NOT_NAMED 1932-08-01 09:00:00 NR 23.6723 124.285 main 259 259 __________P___ -1 23.6723 124.285 4 2 29
1932212N21126 1932 39 WP MM NOT_NAMED 1932-08-01 10:00:00 NR 23.7000 124.300 main 259 255 __________O___ -1 23.7000 124.300 4 2 0
1932212N21126 1932 39 WP MM NOT_NAMED 1932-08-01 12:00:00 NR 23.7539 124.310 main 255 252 __________P___ -1 23.7539 124.310 4 2 2
1932212N21126 1932 39 WP MM NOT_NAMED 1932-08-01 15:00:00 NR 23.8531 124.330 main 252 252 __________P___ -1 23.8531 124.330 4 3 14
1932212N21126 1932 39 WP MM NOT_NAMED 1932-08-01 18:00:00 NR 23.9966 124.374 main 259 255 __________P___ -1 23.9966 124.374 4 4 18
1932212N21126 1932 39 WP MM NOT_NAMED 1932-08-01 21:00:00 NR 24.2093 124.459 main 265 264 __________P___ -1 24.2093 124.459 4 5 20
1932212N21126 1932 39 WP MM NOT_NAMED 1932-08-01 22:00:00 NR 24.3000 124.500 main 264 261 __________O___ -1 24.3000 124.500 4 7 27
1932212N21126 1932 39 WP MM NOT_NAMED 1932-08-02 00:00:00 NR 24.5156 124.625 main 268 266 __________P___ -1 24.5156 124.625 4 8 28
1932212N21126 1932 39 WP MM NOT_NAMED 1932-08-02 03:00:00 NR 24.9080 124.857 main 292 292 __________P___ -1 24.9080 124.857 4 10 28
1932212N21126 1932 39 WP MM NOT_NAMED 1932-08-02 06:00:00 NR 25.3583 125.108 main 314 314 __________P___ -1 25.3583 125.108 4 10 25
1932212N21126 1932 39 WP MM NOT_NAMED 1932-08-02 09:00:00 NR 25.8382 125.336 main 343 346 __________P___ -1 25.8382 125.336 4 10 22
1932212N21126 1932 39 WP MM NOT_NAMED 1932-08-02 10:00:00 NR 26.0000 125.400 main 358 358 __________O___ -1 26.0000 125.400 4 10 17
1932212N21126 1932 39 WP MM NOT_NAMED 1932-08-02 12:00:00 NR 26.3215 125.503 main 379 379 __________P___ -1 26.3215 125.503 4 10 13
1932212N21126 1932 39 WP MM NOT_NAMED 1932-08-02 15:00:00 NR 26.7989 125.606 main 412 412 __________P___ -1 26.7989 125.606 4 10 8
1932212N21126 1932 39 WP MM NOT_NAMED 1932-08-02 18:00:00 NR 27.2722 125.662 main 418 398 __________P___ -1 27.2722 125.662 4 10 5
1932212N21126 1932 39 WP MM NOT_NAMED 1932-08-02 21:00:00 NR 27.7432 125.692 main 398 389 __________P___ -1 27.7432 125.692 4 9 4
1932212N21126 1932 39 WP MM NOT_NAMED 1932-08-02 22:00:00 NR 27.9000 125.700 main 389 __________O___ -1 27.9000 125.700 4 9 8

Digital Typhoon Data and Search

About IBTrACS Database

This database is a web-friendly format of International Best Track Archive for Climate Stewardship (IBTrACS), a global best track data archive curated by NOAA dating back to 1842.

Updated: 2021-11-26